Flight Track Log - Related Links

Times and Time Zones

All times are in EDT time to prevent confusion due to time zone crossing. See the N279D flight status page for this flight to view local times or setup timezone preferences in your user account.

Time Position Orientation Groundspeed Altitude Reporting Facility
EDT Latitude Longitude Course Direction KTS MPH feet Rate Location/Type
Sun 09:06:07 PM 34.1833 -118.4833 219° Southwest 170 196 2,600  Level Southern California TRACON
Sun 09:06:42 PM 34.1544 -118.5114 219° Southwest 197 227 4,100 2,500 Climbing Los Angeles Center
Sun 09:07:43 PM 34.1425 -118.5700 256° West 210 242 6,600 2,439 Climbing Los Angeles Center
Sun 09:08:45 PM 34.1947 -118.5964 337° Northwest 220 253 9,100 2,468 Climbing Los Angeles Center
Sun 09:09:47 PM 34.2586 -118.6067 352° North 228 262 11,700 2,400 Climbing Los Angeles Center
Sun 09:10:50 PM 34.3228 -118.6286 344° North 239 275 14,100 2,286 Climbing Los Angeles Center
Sun 09:11:53 PM 34.3892 -118.6606 338° Northwest 258 297 16,500 2,613 Climbing Los Angeles Center
Sun 09:12:54 PM 34.4731 -118.7006 339° North 268 308 19,500 2,634 Climbing Los Angeles Center
Sun 09:13:56 PM 34.5453 -118.7344 339° North 276 318 21,900 2,177 Climbing Los Angeles Center
Sun 09:14:58 PM 34.6203 -118.7706 338° Northwest 291 335 24,000 1,984 Climbing Los Angeles Center
Sun 09:16:00 PM 34.6969 -118.8106 337° Northwest 298 343 26,000 1,935 Climbing Los Angeles Center
Sun 09:17:02 PM 34.7769 -118.8497 338° Northwest 310 357 28,000 1,984 Climbing Los Angeles Center
Sun 09:18:04 PM 34.8497 -118.9131 324° Northwest 327 376 30,100 2,244 Climbing Los Angeles Center
Sun 09:19:05 PM 34.9222 -118.9917 318° Northwest 313 360 32,600 2,098 Climbing Los Angeles Center
Sun 09:20:07 PM 34.9744 -119.0472 319° Northwest 312 359 34,400 1,984 Climbing Los Angeles Center
Sun 09:21:09 PM 35.0494 -119.1303 318° Northwest 303 349 36,700 1,489 Climbing Los Angeles Center
Sun 09:22:28 PM 35.1139 -119.2000 318° Northwest 308 354 37,900 574 Climbing Los Angeles Center
Sun 09:23:25 PM 35.2014 -119.2967 318° Northwest 353 406 38,000 50 Climbing Los Angeles Center
Sun 09:24:27 PM 35.3022 -119.4075 318° Northwest 406 467 38,000  Level Los Angeles Center
Sun 09:25:29 PM 35.3908 -119.5064 318° Northwest 427 491 38,000  Level Los Angeles Center
Sun 09:26:31 PM 35.4800 -119.6047 318° Northwest 430 495 38,000  Level Los Angeles Center
Sun 09:27:33 PM 35.5658 -119.7014 318° Northwest 425 489 38,000  Level Los Angeles Center
Sun 09:28:35 PM 35.6703 -119.8203 317° Northwest 426 490 38,000  Level Los Angeles Center
Sun 09:29:49 PM 35.7572 -119.9186 317° Northwest 426 490 38,000  Level Los Angeles Center
Sun 09:30:50 PM 35.8436 -120.0164 317° Northwest 425 489 38,000  Level Los Angeles Center
Sun 09:31:53 PM 35.9483 -120.1358 317° Northwest 427 491 38,000  Level Los Angeles Center
Sun 09:32:55 PM 36.0356 -120.2372 317° Northwest 432 497 38,000  Level Los Angeles Center
Sun 09:33:56 PM 36.1222 -120.3356 318° Northwest 428 493 38,000  Level Los Angeles Center
Sun 09:35:06 PM 36.2278 -120.4525 318° Northwest 433 498 38,000  Level Oakland Center
Sun 09:36:07 PM 36.3158 -120.5575 316° Northwest 439 505 38,000  Level Oakland Center
Sun 09:37:08 PM 36.4222 -120.6800 317° Northwest 438 504 38,000  Level Oakland Center
Sun 09:38:10 PM 36.5111 -120.7833 317° Northwest 438 504 38,000  Level Oakland Center
Sun 09:39:11 PM 36.6003 -120.8828 318° Northwest 436 502 38,000  Level Oakland Center
Sun 09:40:13 PM 36.6856 -120.9839 316° Northwest 427 491 38,000  Level Oakland Center
Sun 09:41:13 PM 36.7706 -121.0817 317° Northwest 420 483 38,000 -344 Level Oakland Center
Sun 09:42:15 PM 36.8544 -121.1811 317° Northwest 417 480 37,300 -829 Descending Oakland Center
Sun 09:43:16 PM 36.9403 -121.2828 317° Northwest 421 484 36,300 -984 Descending Oakland Center
Sun 09:44:17 PM 37.0242 -121.3889 315° West 426 490 35,300 -1,328 Descending Oakland Center
Sun 09:45:18 PM 37.1006 -121.5003 311° West 425 489 33,600 -2,634 Descending Oakland Center
Sun 09:46:20 PM 37.2078 -121.6297 316° Northwest 437 503 29,900 -3,366 Descending Oakland Center
Sun 09:47:21 PM 37.3011 -121.7339 318° Northwest 444 511 26,700 -3,049 Descending Oakland Center
Sun 09:48:22 PM 37.3842 -121.8281 318° Northwest 415 478 23,700 -2,917 Descending Oakland Center
Sun 09:49:10 PM 37.4500 -121.9167 313° West 405 466 21,400 -2,824 Descending Northern Cal TRACON
Sun 09:50:04 PM 37.5333 -122.0000 322° Northwest 386 444 18,900 -2,713 Descending Northern Cal TRACON
Sun 09:51:05 PM 37.6000 -122.0833 315° West 366 421 16,200 -2,551 Descending Northern Cal TRACON
Sun 09:52:11 PM 37.6833 -122.1667 322° Northwest 315 362 13,500 -1,551 Descending Northern Cal TRACON
Sun 09:54:30 PM 37.8219 -122.3489 314° West 329 379 10,900 -1,410 Descending Oakland Center
Sun 09:55:31 PM 37.8989 -122.4419 316° Northwest 323 372 8,800 -1,918 Descending Oakland Center
Sun 09:56:32 PM 37.9744 -122.4294 North 295 339 7,000 -1,820 Descending Oakland Center
Sun 09:57:33 PM 38.0450 -122.3981 19° North 276 318 5,100 -1,820 Descending Oakland Center
Sun 09:58:34 PM 38.1119 -122.3658 21° North 264 304 3,300 -1,512 Descending Oakland Center
Sun 09:59:36 PM 38.1736 -122.3367 20° North 245 282 2,000 -976 Descending Oakland Center
Sun 10:00:37 PM 38.2214 -122.3156 19° North 202 232 1,300 -639 Descending Oakland Center
Sun 10:01:38 PM 38.2564 -122.2961 24° Northeast 160 184 700 -590 Descending Oakland Center

Login

Don't have an account? Register now (free) for customized features, flight alerts, and more!